Time;durP1;ratioP1;P1;durP2;ratioP2;P2;SDS_P1;SDS_P2;PMS_P1;PMS_P2;Temp;Humidity;BMP_temperature;BMP_pressure;BME280_temperature;BME280_humidity;BME280_pressure;Samples;Min_cycle;Max_cycle;Signal;HPM_P1;HPM_P2
2021/08/25 00:00:11;;;;;;;15.93;9.95;;;;;;;17.72;93.45;98859.03;1870637;76;22177;-57
2021/08/25 00:03:05;;;;;;;17.00;10.10;;;;;;;17.68;92.86;98863.47;1890088;76;22156;-54
2021/08/25 00:05:42;;;;;;;13.15;8.98;;;;;;;17.74;93.00;98869.01;1870444;76;22136;-58
2021/08/25 00:08:17;;;;;;;14.55;9.93;;;;;;;17.77;92.62;98859.36;1889921;76;22588;-60
2021/08/25 00:11:10;;;;;;;15.15;9.85;;;;;;;17.77;92.71;98867.19;1870577;76;22121;-60
2021/08/25 00:13:45;;;;;;;16.05;9.83;;;;;;;17.76;92.81;98868.09;1889938;76;22108;-60
2021/08/25 00:16:39;;;;;;;18.50;9.95;;;;;;;17.80;92.98;98875.44;1870712;76;22120;-57
2021/08/25 00:19:13;;;;;;;16.95;9.75;;;;;;;17.83;92.81;98877.98;1889909;76;22144;-59
2021/08/25 00:21:48;;;;;;;17.92;10.18;;;;;;;17.90;92.90;98886.56;1889931;76;22163;-61
2021/08/25 00:24:23;;;;;;;17.62;10.35;;;;;;;17.93;92.94;98896.94;1870666;76;22135;-61
2021/08/25 00:26:59;;;;;;;14.90;9.83;;;;;;;17.98;92.95;98892.03;1873865;76;27944;-61
2021/08/25 00:29:53;;;;;;;17.27;10.18;;;;;;;18.09;92.81;98894.86;1870592;76;22120;-59
2021/08/25 00:32:29;;;;;;;15.85;9.73;;;;;;;18.15;92.48;98898.67;1870400;76;22164;-60
2021/08/25 00:35:06;;;;;;;17.15;9.90;;;;;;;18.23;92.51;98895.45;1870655;76;22183;-59
2021/08/25 00:37:41;;;;;;;13.70;9.43;;;;;;;18.29;92.44;98897.92;1889935;76;22143;-59
2021/08/25 00:40:34;;;;;;;13.43;9.55;;;;;;;18.35;92.62;98896.50;1870601;76;22161;-59
2021/08/25 00:43:12;;;;;;;17.07;9.83;;;;;;;18.41;92.94;98901.58;1870441;76;22576;-60
2021/08/25 00:45:47;;;;;;;15.43;9.65;;;;;;;18.45;93.09;98898.47;1870611;76;22109;-60
2021/08/25 00:48:21;;;;;;;20.97;10.35;;;;;;;18.44;92.94;98895.00;1870762;76;22136;-58
2021/08/25 00:50:56;;;;;;;14.05;9.80;;;;;;;18.48;93.20;98900.16;1870744;76;22592;-60
2021/08/25 00:53:31;;;;;;;14.70;9.65;;;;;;;18.47;93.33;98896.69;1870669;76;22579;-59
2021/08/25 00:56:06;;;;;;;16.93;9.78;;;;;;;18.41;93.63;98883.28;1870655;76;22192;-60
2021/08/25 00:58:42;;;;;;;14.60;9.65;;;;;;;18.41;93.88;98889.81;1870690;76;22125;-62
2021/08/25 01:01:32;;;;;;;13.98;8.63;;;;;;;18.43;93.93;98885.42;1889955;76;20207;-60
2021/08/25 01:04:43;;;;;;;17.85;9.78;;;;;;;18.49;93.85;98887.48;1861103;75;22189;-59
2021/08/25 01:07:32;;;;;;;16.17;9.68;;;;;;;18.39;93.49;98889.02;1870430;76;22171;-62
2021/08/25 01:10:27;;;;;;;15.05;10.60;;;;;;;18.23;92.95;98881.08;1870677;76;22187;-60
2021/08/25 01:13:10;;;;;;;17.23;9.05;;;;;;;18.17;93.00;98892.98;1889927;76;22619;-59
2021/08/25 01:15:45;;;;;;;17.98;11.88;;;;;;;18.16;93.36;98888.63;1870726;76;22132;-60
2021/08/25 01:18:20;;;;;;;18.02;11.90;;;;;;;18.21;93.09;98893.31;1889913;76;22200;-61
2021/08/25 01:20:57;;;;;;;18.15;12.23;;;;;;;18.16;93.20;98881.64;1854710;76;27844;-60
2021/08/25 01:23:43;;;;;;;17.77;11.63;;;;;;;18.16;93.53;98892.09;1870597;76;22132;-59
2021/08/25 01:26:19;;;;;;;19.95;11.90;;;;;;;18.14;93.62;98883.88;1889907;76;22139;-58
2021/08/25 01:28:56;;;;;;;15.65;10.05;;;;;;;18.34;93.60;98883.45;1870433;76;22185;-58
2021/08/25 01:31:32;;;;;;;16.90;12.00;;;;;;;18.40;93.55;98885.50;1873870;76;38261;-59
2021/08/25 01:34:27;;;;;;;21.68;14.07;;;;;;;18.63;92.94;98875.83;1870473;76;22144;-60
2021/08/25 01:37:02;;;;;;;22.93;15.50;;;;;;;18.67;92.32;98868.77;1870650;76;22109;-60
2021/08/25 01:39:37;;;;;;;23.90;16.40;;;;;;;18.63;92.27;98863.22;1873866;76;28382;-61
2021/08/25 01:42:13;;;;;;;17.57;14.00;;;;;;;18.56;92.39;98857.72;1870660;76;22547;-60
2021/08/25 01:44:50;;;;;;;17.92;12.75;;;;;;;18.39;92.47;98847.22;1889970;76;22578;-57
2021/08/25 01:47:26;;;;;;;22.15;13.32;;;;;;;18.26;92.10;98837.91;1889922;76;22112;-59
2021/08/25 01:50:01;;;;;;;21.87;14.10;;;;;;;18.19;92.42;98836.31;1889943;76;22100;-59
2021/08/25 01:52:35;;;;;;;21.42;14.03;;;;;;;18.10;92.78;98839.15;1870622;76;22177;-60
2021/08/25 01:55:11;;;;;;;29.42;14.15;;;;;;;17.98;93.61;98830.66;1870552;76;22177;-59
2021/08/25 01:57:47;;;;;;;24.57;13.28;;;;;;;17.91;94.55;98829.52;1870421;76;22590;-59
2021/08/25 02:00:24;;;;;;;27.02;16.23;;;;;;;17.81;94.82;98830.19;1870382;76;22143;-59
2021/08/25 02:02:58;;;;;;;28.15;17.73;;;;;;;17.64;96.65;98834.84;1870651;76;22109;-60
2021/08/25 02:05:34;;;;;;;25.72;16.23;;;;;;;17.68;96.52;98828.66;1854602;76;28333;-59
2021/08/25 02:08:11;;;;;;;20.70;15.45;;;;;;;17.69;96.63;98826.48;1890034;76;22124;-58
2021/08/25 02:10:46;;;;;;;19.10;14.55;;;;;;;17.64;96.84;98824.41;1889930;76;22183;-59
2021/08/25 02:13:22;;;;;;;19.65;15.05;;;;;;;17.62;96.77;98815.74;1889947;76;22176;-59
2021/08/25 02:16:15;;;;;;;28.50;15.48;;;;;;;17.58;97.13;98810.59;1889902;76;22144;-58
2021/08/25 02:18:50;;;;;;;26.95;13.98;;;;;;;17.55;97.53;98811.97;1870591;76;22140;-61
2021/08/25 02:21:25;;;;;;;23.87;14.15;;;;;;;17.53;97.69;98809.83;1870623;76;22563;-58
2021/08/25 02:24:00;;;;;;;28.87;14.60;;;;;;;17.53;97.95;98812.43;1870725;76;22132;-60
2021/08/25 02:26:36;;;;;;;22.42;14.78;;;;;;;17.52;98.03;98805.48;1854654;76;27921;-59
2021/08/25 02:29:29;;;;;;;30.37;14.93;;;;;;;17.53;97.78;98806.36;1870574;76;22149;-58
2021/08/25 02:32:06;;;;;;;25.43;14.70;;;;;;;17.56;97.59;98803.69;1889930;76;22155;-60
2021/08/25 02:35:03;;;;;;;21.68;15.32;;;;;;;17.55;97.53;98800.22;1870380;76;22144;-57
2021/08/25 02:37:39;;;;;;;23.00;16.67;;;;;;;17.54;97.55;98800.23;1835076;77;28033;-60
2021/08/25 02:40:15;;;;;;;24.45;16.07;;;;;;;17.58;97.32;98794.94;1870447;76;22551;-60
2021/08/25 02:43:08;;;;;;;20.88;13.83;;;;;;;17.55;96.67;98792.81;1870609;76;22137;-58
2021/08/25 02:45:44;;;;;;;20.10;13.93;;;;;;;17.44;96.83;98792.18;1889924;76;22171;-59
2021/08/25 02:48:19;;;;;;;20.70;13.10;;;;;;;17.48;96.89;98796.02;1870624;76;22596;-62
2021/08/25 02:51:12;;;;;;;20.60;14.00;;;;;;;17.43;97.41;98805.67;1870732;76;22109;-60
2021/08/25 02:53:47;;;;;;;20.00;12.35;;;;;;;17.41;97.30;98802.68;1870659;76;22104;-59
2021/08/25 02:56:22;;;;;;;21.57;12.23;;;;;;;17.45;97.43;98805.17;1889901;76;22156;-61
2021/08/25 02:58:58;;;;;;;20.52;13.55;;;;;;;17.44;96.96;98803.47;1870447;76;22193;-61
2021/08/25 03:01:34;;;;;;;16.23;11.88;;;;;;;17.44;97.13;98798.70;1854581;76;27947;-59
2021/08/25 03:04:10;;;;;;;18.70;13.32;;;;;;;17.50;96.87;98802.06;1854585;76;27978;-59
2021/08/25 03:06:44;;;;;;;18.90;12.65;;;;;;;17.58;96.77;98798.84;1870657;76;22109;-60
2021/08/25 03:09:39;;;;;;;18.42;11.90;;;;;;;17.62;96.53;98805.30;1870634;76;22144;-56
2021/08/25 03:12:14;;;;;;;21.35;11.50;;;;;;;17.52;96.38;98807.23;1870601;76;22149;-60
2021/08/25 03:14:49;;;;;;;17.75;11.43;;;;;;;17.57;96.17;98802.78;1854623;76;27926;-58
2021/08/25 03:17:25;;;;;;;17.17;10.45;;;;;;;17.64;96.05;98811.36;1854700;76;27920;-59
2021/08/25 03:20:01;;;;;;;14.33;9.10;;;;;;;17.79;96.14;98804.10;1870603;76;22160;-57
2021/08/25 03:22:37;;;;;;;19.40;11.57;;;;;;;18.05;95.61;98807.05;1870649;76;22152;-60
2021/08/25 03:25:12;;;;;;;20.52;10.95;;;;;;;18.28;94.48;98806.09;1870654;76;22120;-58
2021/08/25 03:27:46;;;;;;;18.15;12.50;;;;;;;18.48;93.53;98803.47;1870668;76;22148;-59
2021/08/25 03:30:22;;;;;;;15.75;10.45;;;;;;;18.61;92.67;98803.58;1873876;76;28248;-59
2021/08/25 03:32:58;;;;;;;12.95;8.60;;;;;;;18.75;91.98;98799.30;1870529;76;20097;-58
2021/08/25 03:35:33;;;;;;;13.50;10.03;;;;;;;18.79;90.66;98792.69;1870704;76;22108;-60
2021/08/25 03:38:08;;;;;;;13.80;8.78;;;;;;;18.79;89.41;98799.23;1870591;76;20097;-58
2021/08/25 03:40:44;;;;;;;15.70;10.45;;;;;;;18.70;89.09;98799.45;1870404;76;22167;-58
2021/08/25 03:43:20;;;;;;;14.47;10.05;;;;;;;18.71;88.92;98808.99;1835029;77;22197;-60
2021/08/25 03:45:55;;;;;;;21.00;9.50;;;;;;;18.78;88.99;98807.98;1870561;76;22232;-59
2021/08/25 03:48:30;;;;;;;14.38;8.73;;;;;;;18.96;88.52;98808.42;1890055;76;22602;-61
2021/08/25 03:51:06;;;;;;;15.80;9.93;;;;;;;19.15;87.69;98807.03;1854668;76;27913;-50
2021/08/25 03:53:41;;;;;;;15.83;10.90;;;;;;;19.32;86.81;98813.59;1854758;76;27918;-46
2021/08/25 03:56:34;;;;;;;14.40;10.03;;;;;;;19.44;86.33;98803.64;1870657;76;22572;-42
2021/08/25 03:59:10;;;;;;;13.00;9.78;;;;;;;19.40;86.19;98801.15;1854696;76;28306;-60
2021/08/25 04:01:44;;;;;;;12.88;8.98;;;;;;;19.43;85.63;98804.98;1889922;76;22134;-63
2021/08/25 04:04:19;;;;;;;16.05;10.18;;;;;;;19.33;85.24;98799.14;1889944;76;22265;-61
2021/08/25 04:06:54;;;;;;;16.95;10.03;;;;;;;19.13;85.46;98798.35;1842521;76;22223;-60
2021/08/25 04:09:29;;;;;;;14.80;10.50;;;;;;;18.90;86.06;98790.26;1854637;76;27935;-62
2021/08/25 04:12:04;;;;;;;18.85;10.23;;;;;;;18.81;86.58;98792.21;1870761;76;22551;-64
2021/08/25 04:14:59;;;;;;;13.28;9.35;;;;;;;18.73;86.90;98798.05;1870426;76;22211;-63
2021/08/25 04:17:34;;;;;;;17.70;10.80;;;;;;;18.76;87.22;98790.16;1870626;76;22184;-61
2021/08/25 04:20:10;;;;;;;14.55;8.70;;;;;;;18.75;87.52;98789.77;1889822;76;22596;-64
2021/08/25 04:22:45;;;;;;;16.23;10.40;;;;;;;18.79;87.53;98788.77;1890148;76;22574;-61
2021/08/25 04:25:41;;;;;;;19.00;10.90;;;;;;;18.91;86.99;98784.15;1889889;76;22159;-62
2021/08/25 04:28:16;;;;;;;22.15;12.75;;;;;;;18.84;87.19;98786.90;1870772;76;22113;-61
2021/08/25 04:30:51;;;;;;;17.48;11.93;;;;;;;18.69;88.25;98782.02;1870618;76;22109;-58
2021/08/25 04:33:26;;;;;;;16.23;11.22;;;;;;;18.53;89.10;98779.39;1854726;76;27980;-58
2021/08/25 04:36:01;;;;;;;16.80;10.38;;;;;;;18.44;89.71;98783.95;1870631;76;22246;-62
2021/08/25 04:38:36;;;;;;;16.05;11.03;;;;;;;18.43;90.07;98785.28;1874017;76;28050;-61
2021/08/25 04:41:30;;;;;;;14.50;10.58;;;;;;;18.50;89.96;98783.39;1870525;76;22113;-59
2021/08/25 04:44:05;;;;;;;17.62;10.65;;;;;;;18.46;89.98;98783.04;1889951;76;22104;-62
2021/08/25 04:46:40;;;;;;;17.90;12.85;;;;;;;18.51;90.34;98782.03;1854788;76;27926;-58
2021/08/25 04:49:15;;;;;;;18.20;12.28;;;;;;;18.62;90.53;98783.06;1850805;77;22159;-59
2021/08/25 04:51:50;;;;;;;16.85;11.75;;;;;;;18.60;90.81;98782.27;1889903;76;22534;-58
2021/08/25 04:54:25;;;;;;;18.48;12.75;;;;;;;18.62;90.94;98777.84;1870634;76;22149;-60
2021/08/25 04:56:59;;;;;;;14.05;9.95;;;;;;;18.77;90.66;98777.95;1889932;76;22151;-58
2021/08/25 04:59:35;;;;;;;16.97;13.08;;;;;;;18.84;90.56;98782.13;1873812;76;28412;-68
2021/08/25 05:02:10;;;;;;;17.73;12.47;;;;;;;19.14;90.30;98783.09;1889907;76;22151;-63
2021/08/25 05:04:48;;;;;;;17.32;12.18;;;;;;;19.25;89.83;98786.26;1854564;76;27925;-63
2021/08/25 05:07:43;;;;;;;14.40;11.25;;;;;;;19.42;89.26;98786.27;1870420;76;22175;-67
2021/08/25 05:10:18;;;;;;;13.88;9.98;;;;;;;19.46;88.44;98781.34;1889996;76;22144;-62
2021/08/25 05:12:53;;;;;;;14.30;8.93;;;;;;;19.50;87.55;98785.59;1854622;76;38675;-64
2021/08/25 05:15:28;;;;;;;11.90;8.63;;;;;;;19.72;86.15;98785.42;1889931;76;22550;-60
2021/08/25 05:18:03;;;;;;;11.40;9.15;;;;;;;19.97;84.57;98785.98;1870649;76;22586;-61
2021/08/25 05:20:38;;;;;;;15.15;10.00;;;;;;;20.12;83.19;98777.70;1889878;76;22115;-61
2021/08/25 05:23:37;;;;;;;13.78;9.83;;;;;;;20.25;81.82;98775.55;1869759;76;22168;-60
2021/08/25 05:26:14;;;;;;;13.72;9.95;;;;;;;20.07;82.08;98773.02;1870461;76;22136;-63
2021/08/25 05:28:49;;;;;;;14.53;9.08;;;;;;;20.04;81.80;98769.19;1870626;76;22113;-61
2021/08/25 05:31:25;;;;;;;14.65;9.33;;;;;;;20.12;81.37;98772.45;1889989;76;20097;-62
2021/08/25 05:34:19;;;;;;;16.27;10.23;;;;;;;20.40;80.13;98778.11;1889936;76;22108;-61
2021/08/25 05:37:13;;;;;;;17.00;10.25;;;;;;;20.60;79.42;98774.88;1870366;76;22117;-64
2021/08/25 05:39:48;;;;;;;16.62;11.83;;;;;;;20.72;78.55;98769.70;1869338;76;22156;-62
2021/08/25 05:42:23;;;;;;;17.65;11.73;;;;;;;20.45;78.43;98772.27;1855021;75;22194;-59
2021/08/25 05:45:07;;;;;;;16.93;12.13;;;;;;;20.03;80.01;98767.95;1889817;75;22196;-65
2021/08/25 05:47:42;;;;;;;15.68;11.43;;;;;;;19.71;81.30;98765.82;1870615;76;22117;-61
2021/08/25 05:50:36;;;;;;;19.87;13.38;;;;;;;19.43;83.11;98767.03;1866802;76;22140;-63
2021/08/25 05:53:16;;;;;;;17.60;13.05;;;;;;;19.11;84.80;98767.48;1850329;76;22247;-64
2021/08/25 05:55:52;;;;;;;16.00;11.70;;;;;;;18.95;86.11;98763.53;1842693;76;22216;-65
2021/08/25 05:58:26;;;;;;;20.48;12.80;;;;;;;18.80;86.97;98763.48;1857844;76;22225;-65
2021/08/25 06:01:20;;;;;;;21.65;12.78;;;;;;;18.76;87.46;98761.41;1889896;76;22571;-62
2021/08/25 06:03:55;;;;;;;17.10;11.90;;;;;;;18.79;87.81;98760.02;1889878;76;22143;-58
2021/08/25 06:06:36;;;;;;;17.73;11.93;;;;;;;18.82;87.72;98765.16;1869834;76;22569;-62
2021/08/25 06:09:11;;;;;;;22.15;12.55;;;;;;;18.86;87.91;98760.27;1870469;76;22137;-60
2021/08/25 06:11:46;;;;;;;18.95;12.78;;;;;;;18.88;88.37;98761.55;1885684;76;22289;-62
2021/08/25 06:14:20;;;;;;;20.27;12.37;;;;;;;18.92;88.64;98762.31;1848198;76;22217;-68
2021/08/25 06:16:58;;;;;;;18.40;11.38;;;;;;;18.83;89.05;98757.74;1850997;76;22199;-59
2021/08/25 06:19:34;;;;;;;16.75;11.68;;;;;;;18.82;89.19;98760.38;1889931;76;22135;-62
2021/08/25 06:22:35;;;;;;;21.68;14.63;;;;;;;18.98;88.52;98761.72;1870905;75;22688;-59
2021/08/25 06:25:11;;;;;;;19.60;14.10;;;;;;;19.14;87.62;98762.16;1851152;76;22171;-60
2021/08/25 06:27:45;;;;;;;20.55;13.85;;;;;;;19.26;87.73;98764.45;1837703;76;27984;-59
2021/08/25 06:30:20;;;;;;;14.40;9.80;;;;;;;19.42;87.37;98764.02;1889835;76;22599;-54
2021/08/25 06:32:56;;;;;;;16.85;10.25;;;;;;;19.73;86.15;98767.49;1870380;76;22148;-66
2021/08/25 06:35:51;;;;;;;17.57;10.98;;;;;;;20.47;83.16;98766.53;1889843;76;22155;-63
2021/08/25 06:38:32;;;;;;;20.68;12.00;;;;;;;21.05;80.55;98760.28;1889754;76;22136;-64
2021/08/25 06:41:06;;;;;;;17.35;12.07;;;;;;;21.49;78.63;98765.73;1870507;76;22129;-67
2021/08/25 06:43:42;;;;;;;22.35;13.72;;;;;;;21.65;77.82;98775.63;1870527;76;22181;-68
2021/08/25 06:46:23;;;;;;;18.75;12.82;;;;;;;21.63;77.68;98780.08;1881273;76;22714;-64
2021/08/25 06:49:23;;;;;;;24.77;13.22;;;;;;;21.54;77.44;98780.40;1851915;76;23447;-66
2021/08/25 06:52:16;;;;;;;21.20;13.48;;;;;;;21.44;77.15;98782.50;1851857;76;22156;-63
2021/08/25 06:54:52;;;;;;;20.08;13.28;;;;;;;21.30;77.41;98788.69;1852712;76;22219;-69
2021/08/25 06:57:28;;;;;;;21.97;13.90;;;;;;;21.32;77.85;98790.80;1855750;76;22555;-67
2021/08/25 07:00:07;;;;;;;17.42;9.73;;;;;;;21.36;77.70;98791.08;1856866;76;22208;-59
2021/08/25 07:02:41;;;;;;;18.87;13.25;;;;;;;21.41;76.72;98794.89;1864288;76;22157;-64
2021/08/25 07:05:35;;;;;;;23.40;13.43;;;;;;;21.61;76.29;98794.17;1870550;76;22160;-67
2021/08/25 07:08:10;;;;;;;21.70;13.78;;;;;;;21.66;75.86;98791.77;1870584;76;22148;-71
2021/08/25 07:10:46;;;;;;;19.92;14.65;;;;;;;21.68;75.77;98795.20;1854483;76;28118;-69
2021/08/25 07:13:21;;;;;;;18.92;14.10;;;;;;;21.72;75.22;98802.97;1850693;76;22315;-67
2021/08/25 07:16:03;;;;;;;22.25;13.60;;;;;;;21.63;75.76;98805.48;1859859;76;22218;-68
2021/08/25 07:18:38;;;;;;;20.02;13.30;;;;;;;21.55;76.28;98799.63;1866202;76;22633;-67
2021/08/25 07:21:19;;;;;;;21.40;14.18;;;;;;;21.47;76.99;98799.91;1889956;76;22203;-65
2021/08/25 07:23:55;;;;;;;20.05;14.53;;;;;;;21.36;77.57;98809.45;1854481;76;28389;-69
2021/08/25 07:26:36;;;;;;;21.45;13.30;;;;;;;21.28;77.28;98804.09;1862510;76;22208;-70
2021/08/25 07:29:11;;;;;;;18.77;12.98;;;;;;;21.11;77.32;98807.28;1847929;76;22177;-66
2021/08/25 07:31:47;;;;;;;22.00;14.10;;;;;;;20.94;77.97;98801.29;1870517;76;22140;-67
2021/08/25 07:34:28;;;;;;;22.40;13.28;;;;;;;20.78;78.78;98797.87;1869752;76;22185;-65
2021/08/25 07:47:47;;;;;;;21.93;13.75;;;;;;;20.29;82.86;98794.19;1810441;79;22151;-66
2021/08/25 07:50:28;;;;;;;23.30;15.53;;;;;;;20.28;83.24;98789.02;1883907;76;22193;-67
2021/08/25 07:53:03;;;;;;;23.07;15.03;;;;;;;20.31;83.43;98782.36;1852091;76;22179;-68
2021/08/25 07:55:44;;;;;;;22.20;15.80;;;;;;;20.42;83.47;98779.39;1848211;76;22190;-68
2021/08/25 07:58:45;;;;;;;27.77;15.28;;;;;;;20.64;82.94;98792.24;1885602;76;22196;-65
2021/08/25 08:01:30;;;;;;;20.40;15.72;;;;;;;20.78;82.35;98786.06;1889670;76;22115;-66
2021/08/25 08:04:24;;;;;;;23.10;15.10;;;;;;;20.83;81.87;98799.03;1963590;73;22120;-64
2021/08/25 08:07:19;;;;;;;24.02;16.02;;;;;;;20.85;81.86;98796.37;1864200;76;27980;-67
2021/08/25 08:10:03;;;;;;;23.70;14.93;;;;;;;21.00;81.71;98794.08;1889754;76;22623;-65
2021/08/25 08:12:38;;;;;;;23.62;15.83;;;;;;;21.27;81.07;98795.80;1889856;76;22567;-64
2021/08/25 08:15:13;;;;;;;19.12;14.70;;;;;;;21.54;80.12;98788.73;1870547;76;22141;-68
2021/08/25 08:18:10;;;;;;;20.55;15.68;;;;;;;21.98;79.15;98784.90;1854566;76;28529;-66
2021/08/25 08:20:45;;;;;;;18.52;13.70;;;;;;;22.47;77.01;98780.39;1868658;76;22144;-69
2021/08/25 08:23:20;;;;;;;20.05;14.28;;;;;;;22.81;75.18;98782.48;1889861;76;22180;-70
2021/08/25 08:26:01;;;;;;;16.90;12.75;;;;;;;23.05;73.91;98787.21;1867472;76;22197;-69
2021/08/25 08:28:42;;;;;;;19.10;13.15;;;;;;;23.25;73.13;98787.64;1862690;76;22678;-70
2021/08/25 08:31:18;;;;;;;19.48;14.90;;;;;;;23.36;71.59;98774.03;1854652;76;28076;-69
2021/08/25 08:34:13;;;;;;;19.67;13.60;;;;;;;23.38;71.67;98780.06;1868751;75;22189;-68
2021/08/25 08:37:08;;;;;;;21.00;14.87;;;;;;;23.46;70.93;98781.91;1854408;76;28007;-67
2021/08/25 08:40:04;;;;;;;15.50;12.65;;;;;;;23.54;70.15;98781.57;1870534;76;22168;-64
2021/08/25 08:43:09;;;;;;;16.40;12.50;;;;;;;23.14;71.37;98777.58;1869694;76;22157;-66
2021/08/25 08:45:45;;;;;;;17.67;12.73;;;;;;;23.18;71.59;98780.95;1889848;76;22163;-63
2021/08/25 08:48:20;;;;;;;15.13;12.00;;;;;;;23.49;71.16;98781.77;1870611;76;22113;-65
2021/08/25 08:51:18;;;;;;;15.75;11.88;;;;;;;23.66;70.69;98786.30;1870529;76;22149;-64
2021/08/25 08:54:00;;;;;;;16.55;13.53;;;;;;;23.59;70.08;98787.02;1873679;76;28384;-67
2021/08/25 08:57:00;;;;;;;16.52;12.95;;;;;;;23.48;70.24;98785.31;1869581;76;22194;-68
2021/08/25 08:59:39;;;;;;;16.73;12.25;;;;;;;23.38;70.79;98787.95;1869984;76;22144;-71
2021/08/25 09:02:43;;;;;;;15.10;11.93;;;;;;;23.24;71.05;98783.78;1869451;76;22177;-68
2021/08/25 09:05:33;;;;;;;14.38;11.88;;;;;;;22.98;71.92;98788.39;1870382;76;22193;-66
2021/08/25 09:08:08;;;;;;;14.85;11.50;;;;;;;22.81;72.82;98782.48;1870503;76;22141;-71
2021/08/25 09:21:08;;;;;;;16.40;11.65;;;;;;;22.28;75.13;98778.94;1802095;79;22178;-63
2021/08/25 09:23:48;;;;;;;18.77;10.98;;;;;;;22.31;75.04;98772.23;1869300;76;22173;-63
2021/08/25 09:26:23;;;;;;;14.45;10.23;;;;;;;22.44;74.75;98772.17;1870600;76;22145;-61
2021/08/25 09:29:19;;;;;;;12.73;10.30;;;;;;;22.61;74.06;98783.30;1870593;76;22137;-62
2021/08/25 09:32:00;;;;;;;14.07;9.78;;;;;;;22.91;73.31;98777.22;1870636;76;22109;-62
2021/08/25 09:34:42;;;;;;;13.60;10.32;;;;;;;23.06;72.56;98773.11;1889911;76;22666;-63
2021/08/25 09:37:18;;;;;;;14.60;10.48;;;;;;;23.28;71.93;98766.91;1854544;76;27911;-64
2021/08/25 09:40:16;;;;;;;15.03;10.40;;;;;;;23.64;70.91;98764.89;1870574;76;22145;-59
2021/08/25 09:42:51;;;;;;;13.60;10.38;;;;;;;23.96;69.98;98765.58;1870426;76;22156;-58
2021/08/25 09:45:32;;;;;;;11.57;9.75;;;;;;;24.23;69.02;98760.79;1869774;76;22593;-64
2021/08/25 09:48:13;;;;;;;15.10;10.65;;;;;;;24.29;67.77;98764.91;1869740;76;22579;-62
2021/08/25 09:50:58;;;;;;;14.38;10.05;;;;;;;24.31;67.60;98767.02;1869710;76;22139;-64
2021/08/25 09:54:10;;;;;;;15.00;10.78;;;;;;;24.40;67.08;98759.11;1858903;75;38425;-60
2021/08/25 09:56:45;;;;;;;24.77;17.23;;;;;;;24.43;67.34;98749.75;1889912;76;22159;-63
2021/08/25 09:59:46;;;;;;;33.33;21.20;;;;;;;24.48;67.41;98737.22;1869663;76;22168;-63
2021/08/25 10:02:21;;;;;;;27.40;20.08;;;;;;;24.58;67.48;98737.15;1863308;75;28572;-69
2021/08/25 10:05:28;;;;;;;28.38;20.05;;;;;;;24.87;66.62;98740.09;1875874;76;20111;-65
2021/08/25 10:08:11;;;;;;;52.30;33.83;;;;;;;25.18;65.39;98738.06;1889797;75;22612;-62
2021/08/25 10:10:46;;;;;;;53.87;34.65;;;;;;;25.44;65.49;98738.03;1870401;76;22181;-66
2021/08/25 10:13:28;;;;;;;39.42;26.12;;;;;;;25.65;65.05;98738.66;1889842;76;22571;-66
2021/08/25 10:16:48;;;;;;;28.32;18.30;;;;;;;25.90;63.47;98736.00;1870509;76;22590;-67
2021/08/25 10:19:37;;;;;;;17.27;11.97;;;;;;;25.98;61.70;98737.30;1852741;76;22165;-68
2021/08/25 10:22:24;;;;;;;19.80;12.63;;;;;;;25.98;61.01;98745.23;1853814;76;27897;-68
2021/08/25 10:25:03;;;;;;;15.65;12.50;;;;;;;25.96;60.87;98744.45;1864095;76;22616;-70
2021/08/25 10:28:00;;;;;;;13.22;9.93;;;;;;;25.98;60.74;98732.01;1855415;76;22136;-68
2021/08/25 10:30:57;;;;;;;13.10;10.25;;;;;;;25.90;60.55;98725.42;1811549;77;27989;-67
2021/08/25 10:34:12;;;;;;;12.35;9.08;;;;;;;25.86;60.45;98724.75;1834868;76;28487;-64
2021/08/25 10:36:49;;;;;;;12.65;8.83;;;;;;;25.83;60.14;98724.05;1862317;76;22195;-68
2021/08/25 10:39:34;;;;;;;13.05;7.75;;;;;;;25.88;59.91;98719.39;1864921;76;22160;-69
2021/08/25 10:42:17;;;;;;;9.68;8.28;;;;;;;25.87;59.75;98711.91;1861882;75;22196;-68
2021/08/25 10:44:51;;;;;;;9.93;8.40;;;;;;;25.78;59.97;98706.64;1870672;76;22129;-68
2021/08/25 10:47:50;;;;;;;9.38;7.85;;;;;;;25.68;60.25;98718.66;1852372;76;22213;-68
2021/08/25 10:50:50;;;;;;;11.10;7.90;;;;;;;25.74;60.03;98704.25;1860757;76;22156;-65
2021/08/25 10:53:37;;;;;;;9.08;7.17;;;;;;;25.94;59.64;98704.50;1868666;76;22344;-65
2021/08/25 10:56:46;;;;;;;10.45;7.45;;;;;;;26.05;58.90;98700.77;1865794;76;22160;-68
2021/08/25 10:59:21;;;;;;;10.53;7.45;;;;;;;26.08;58.82;98692.68;1862395;76;22144;-59
2021/08/25 11:02:17;;;;;;;9.63;6.95;;;;;;;26.10;58.20;98691.25;1871909;75;22207;-69
2021/08/25 11:05:11;;;;;;;9.10;7.25;;;;;;;26.18;57.64;98684.60;1886441;76;22221;-63
2021/08/25 11:07:47;;;;;;;8.68;6.90;;;;;;;26.14;56.80;98681.73;1863735;76;22157;-61
2021/08/25 11:10:23;;;;;;;8.13;6.20;;;;;;;26.12;56.07;98686.25;1870459;76;22175;-62
2021/08/25 11:13:01;;;;;;;8.75;5.65;;;;;;;26.05;56.59;98681.41;1889819;76;22168;-64
2021/08/25 11:15:36;;;;;;;8.33;5.85;;;;;;;26.02;55.97;98687.72;1870555;76;22595;-63
2021/08/25 11:18:12;;;;;;;8.20;5.60;;;;;;;25.99;55.77;98688.75;1870614;76;22587;-65
2021/08/25 11:20:53;;;;;;;7.55;5.67;;;;;;;26.07;55.41;98688.31;1870653;76;22156;-62
2021/08/25 11:23:45;;;;;;;7.45;5.65;;;;;;;26.16;56.02;98678.55;1867993;76;22200;-66
2021/08/25 11:26:45;;;;;;;6.78;5.47;;;;;;;26.09;54.92;98685.59;1844489;76;22196;-65
2021/08/25 11:30:07;;;;;;;8.03;5.97;;;;;;;25.83;55.62;98683.08;1889828;76;22670;-64
2021/08/25 11:32:50;;;;;;;8.05;6.17;;;;;;;25.54;56.73;98685.52;1870456;76;22183;-68
2021/08/25 11:35:36;;;;;;;8.08;5.92;;;;;;;25.37;57.72;98685.13;1870564;76;22136;-64
2021/08/25 11:38:19;;;;;;;6.75;5.55;;;;;;;25.19;58.13;98680.37;1890137;76;22195;-64
2021/08/25 11:40:56;;;;;;;8.25;6.20;;;;;;;25.11;58.34;98674.14;1854749;76;27926;-64
2021/08/25 11:43:31;;;;;;;10.20;5.35;;;;;;;25.21;58.26;98676.31;1870448;76;22175;-65
2021/08/25 11:46:05;;;;;;;8.18;5.67;;;;;;;25.31;58.11;98674.41;1889909;76;22124;-64
2021/08/25 11:48:41;;;;;;;6.80;5.10;;;;;;;25.42;57.50;98665.92;1870518;76;22144;-68
2021/08/25 11:51:16;;;;;;;7.58;4.55;;;;;;;25.49;57.16;98661.13;1870383;76;22168;-65
2021/08/25 11:53:58;;;;;;;5.12;4.03;;;;;;;25.56;56.58;98674.40;1889783;76;22636;-64
2021/08/25 11:56:40;;;;;;;6.37;4.30;;;;;;;25.61;56.77;98672.35;1854516;76;27929;-67
2021/08/25 11:59:14;;;;;;;4.97;3.65;;;;;;;25.96;55.38;98666.92;1870485;76;22591;-65
2021/08/25 12:01:49;;;;;;;5.62;3.60;;;;;;;26.20;54.86;98656.72;1859761;76;22168;-63
2021/08/25 12:04:28;;;;;;;4.72;3.62;;;;;;;26.28;54.47;98664.21;1870249;76;22248;-67
2021/08/25 12:07:09;;;;;;;6.62;3.92;;;;;;;26.44;52.93;98665.03;1870016;76;22194;-66
2021/08/25 12:09:45;;;;;;;5.65;3.60;;;;;;;26.26;52.97;98668.77;1867204;76;22152;-66
2021/08/25 12:12:48;;;;;;;7.78;3.15;;;;;;;26.04;53.08;98663.84;1848979;76;22228;-64
2021/08/25 12:15:45;;;;;;;6.47;3.52;;;;;;;25.83;53.23;98665.41;1870435;76;22141;-62
2021/08/25 12:18:23;;;;;;;5.50;3.30;;;;;;;25.70;53.73;98667.05;1870588;76;22145;-63
2021/08/25 12:21:09;;;;;;;4.08;2.70;;;;;;;25.68;54.32;98665.80;1870544;76;22152;-67
2021/08/25 12:24:11;;;;;;;4.22;2.77;;;;;;;25.72;54.42;98669.11;1870324;76;22164;-61
2021/08/25 12:26:55;;;;;;;4.70;3.12;;;;;;;25.75;54.31;98667.17;1870593;76;22145;-62
2021/08/25 12:29:31;;;;;;;3.65;2.00;;;;;;;25.75;55.07;98671.13;1870570;76;22137;-65
2021/08/25 12:32:13;;;;;;;3.65;2.30;;;;;;;25.88;54.50;98675.77;1869832;76;22171;-62
2021/08/25 12:35:07;;;;;;;3.35;2.08;;;;;;;25.90;54.44;98681.80;1847499;76;22606;-64
2021/08/25 12:37:49;;;;;;;4.75;2.45;;;;;;;25.82;55.02;98675.59;1839649;76;22199;-54
2021/08/25 12:40:24;;;;;;;3.77;2.00;;;;;;;25.81;54.62;98662.47;1870665;76;22136;-56
2021/08/25 12:43:00;;;;;;;4.08;2.35;;;;;;;25.70;54.97;98664.41;1889930;76;20262;-52
2021/08/25 12:45:35;;;;;;;4.53;2.20;;;;;;;25.65;54.93;98668.62;1854821;76;27944;-63
2021/08/25 12:48:24;;;;;;;5.90;2.00;;;;;;;25.63;54.83;98666.52;1889788;76;22201;-62